Terminal Aerodrome Forecast
Issued by NWS Albany, NY

Home | Current Version | Previous Version | Text Only | Print | Product List | Glossary On
Versions: 1 2 3 4 5 6 7 8 9 10 11 12 13 14 15 16 17 18 19 20 21 22
000
FTUS41 KALY 312300
TAFALB
TAF
KALB 312327Z 0100/0124 30010KT P6SM FEW035
     FM010300 28005KT P6SM SCT035 SCT060
     FM010800 28003KT P6SM SCT035 OVC060
     FM011300 30006KT P6SM BKN035 BKN250
     FM012200 33005KT P6SM VCSH BKN035 OVC090=

USA.gov is the U.S. government's official web portal to all federal, state and local government web resources and services.